Bloomington, Minnesota
Current Conditions -  °F | °C
As of 3:43 PM on Monday 24 Nov 2014 (Local Time) from KMSP Reporting Station
Light Snow Light Snow  
Wind Chill:   Ceiling: 2300
Heat Index: 19°   Visibility: 1.5mi
Dew Point: 12°   Wind: 22mph
Humidity: 74%   Direction: 310°NW
Pressure: 29.61"   Gusts: 28mph
Location:  44.82°N, 93.31°W
Report Text: KMSP 242143Z 31019G24KT 1 1/2SM -SN BKN023 BKN049 OVC060 M07/M11 A2961 RMK AO2 PK WND 29027/2102 SNB2055 PRESRR P0000 T10721111
Loading
Personal Weather Stations






























Interactive Weather Map New forecast layout! Learn more

10-Day Weather Forecast

Advertisements
Track Severe Weather on mobile